createdAt,value
2023-01-07T00:01:21.894Z,9.37
2023-01-07T00:03:50.377Z,9.44
2023-01-07T00:06:22.750Z,9.47
2023-01-07T00:08:52.505Z,9.50
2023-01-07T00:11:24.974Z,9.53
2023-01-07T00:13:53.927Z,9.56
2023-01-07T00:16:23.616Z,9.58
2023-01-07T00:18:52.560Z,9.61
2023-01-07T00:21:21.814Z,9.66
2023-01-07T00:23:49.306Z,9.68
2023-01-07T00:26:18.677Z,9.75
2023-01-07T00:28:48.219Z,9.80
2023-01-07T00:31:36.462Z,9.81
2023-01-07T00:34:04.582Z,9.85
2023-01-07T00:36:34.950Z,9.94
2023-01-07T00:39:06.088Z,10.02
2023-01-07T00:41:33.330Z,10.04
2023-01-07T00:44:00.430Z,10.08
2023-01-07T00:46:27.550Z,10.08
2023-01-07T00:48:54.643Z,10.11
2023-01-07T00:51:21.577Z,10.14
2023-01-07T00:53:48.464Z,10.16
2023-01-07T00:56:19.167Z,10.17
2023-01-07T00:58:47.351Z,10.15
2023-01-07T01:01:16.522Z,10.16
2023-01-07T01:03:43.639Z,10.14
2023-01-07T01:06:16.370Z,10.18
2023-01-07T01:08:47.206Z,10.16
2023-01-07T01:11:16.387Z,10.16
2023-01-07T01:13:45.082Z,10.15
2023-01-07T01:16:17.074Z,10.15
2023-01-07T01:18:46.005Z,10.16
2023-01-07T01:21:14.995Z,10.16
2023-01-07T01:23:43.559Z,10.17
2023-01-07T01:26:17.325Z,10.16
2023-01-07T01:28:44.989Z,10.18
2023-01-07T01:31:14.530Z,10.18
2023-01-07T01:33:48.393Z,10.18
2023-01-07T01:36:15.990Z,10.21
2023-01-07T01:38:43.049Z,10.21
2023-01-07T01:41:12.531Z,10.21
2023-01-07T01:43:42.322Z,10.21
2023-01-07T01:46:22.063Z,10.22
2023-01-07T01:49:01.299Z,10.22
2023-01-07T01:51:34.813Z,10.24
2023-01-07T01:54:06.999Z,10.24
2023-01-07T01:56:36.911Z,10.26
2023-01-07T01:59:08.587Z,10.28
2023-01-07T02:01:37.232Z,10.27
2023-01-07T02:04:17.734Z,10.27
2023-01-07T02:07:04.729Z,10.25
2023-01-07T02:09:33.832Z,10.29
2023-01-07T02:12:38.318Z,10.29
2023-01-07T02:15:22.277Z,10.29
2023-01-07T02:18:03.585Z,10.29
2023-01-07T02:20:42.654Z,10.29
2023-01-07T02:23:37.483Z,10.30
2023-01-07T02:26:29.455Z,10.30
2023-01-07T02:29:33.913Z,10.30
2023-01-07T02:32:01.255Z,10.28
2023-01-07T02:35:05.457Z,10.29
2023-01-07T02:37:56.913Z,10.30
2023-01-07T02:40:43.767Z,10.29
2023-01-07T02:43:35.409Z,10.30
2023-01-07T02:46:17.695Z,10.32
2023-01-07T02:48:46.522Z,10.32
2023-01-07T02:51:13.628Z,10.32
2023-01-07T02:53:46.017Z,10.31
2023-01-07T02:56:26.151Z,10.31
2023-01-07T02:59:15.687Z,10.30
2023-01-07T03:02:17.658Z,10.31
2023-01-07T03:05:15.306Z,10.33
2023-01-07T03:07:57.928Z,10.36
2023-01-07T03:10:51.918Z,10.38
2023-01-07T03:13:26.202Z,10.38
2023-01-07T03:15:55.768Z,10.39
2023-01-07T03:18:27.560Z,10.41
2023-01-07T03:21:11.515Z,10.42
2023-01-07T03:23:43.920Z,10.42
2023-01-07T03:26:15.860Z,10.41
2023-01-07T03:28:43.145Z,10.42
2023-01-07T03:31:14.612Z,10.42
2023-01-07T03:33:56.872Z,10.40
2023-01-07T03:36:33.177Z,10.41
2023-01-07T03:39:00.658Z,10.36
2023-01-07T03:41:47.250Z,10.40
2023-01-07T03:44:14.335Z,10.43
2023-01-07T03:46:41.195Z,10.45
2023-01-07T03:49:08.291Z,10.47
2023-01-07T03:51:36.708Z,10.48
2023-01-07T03:54:03.698Z,10.47
2023-01-07T03:56:30.706Z,10.45
2023-01-07T03:58:57.678Z,10.45
2023-01-07T04:01:24.700Z,10.44
2023-01-07T04:03:52.178Z,10.45
2023-01-07T04:06:19.438Z,10.48
2023-01-07T04:08:47.187Z,10.47
2023-01-07T04:11:14.329Z,10.46
2023-01-07T04:13:41.203Z,10.38
2023-01-07T04:16:08.193Z,10.30
2023-01-07T04:18:35.923Z,10.26
2023-01-07T04:21:02.897Z,10.26
2023-01-07T04:23:31.388Z,10.22
2023-01-07T04:25:59.017Z,10.21
2023-01-07T04:28:26.800Z,10.25
2023-01-07T04:30:54.184Z,10.22
2023-01-07T04:33:22.478Z,10.19
2023-01-07T04:35:49.383Z,10.21
2023-01-07T04:38:17.935Z,10.25
2023-01-07T04:40:45.033Z,10.24
2023-01-07T04:43:12.987Z,10.23
2023-01-07T04:45:40.334Z,10.17
2023-01-07T04:48:08.022Z,10.11
2023-01-07T04:50:34.957Z,10.11
2023-01-07T04:53:02.410Z,10.12
2023-01-07T04:55:29.342Z,10.16
2023-01-07T04:57:57.083Z,10.18
2023-01-07T05:00:23.949Z,10.19
2023-01-07T05:02:53.225Z,10.18
2023-01-07T05:05:20.257Z,10.17
2023-01-07T05:07:48.002Z,10.18
2023-01-07T05:10:17.098Z,10.19
2023-01-07T05:12:46.178Z,10.18
2023-01-07T05:15:15.190Z,10.18
2023-01-07T05:17:43.184Z,10.20
2023-01-07T05:20:10.906Z,10.21
2023-01-07T05:22:39.135Z,10.20
2023-01-07T05:25:06.591Z,10.22
2023-01-07T05:27:33.473Z,10.19
2023-01-07T05:30:02.080Z,10.16
2023-01-07T05:32:29.296Z,10.11
2023-01-07T05:34:56.346Z,10.08
2023-01-07T05:37:23.290Z,10.03
2023-01-07T05:39:50.652Z,9.97
2023-01-07T05:42:19.644Z,9.87
2023-01-07T05:44:47.422Z,9.81
2023-01-07T05:47:14.292Z,9.75
2023-01-07T05:49:41.466Z,9.73
2023-01-07T05:52:08.342Z,9.67
2023-01-07T05:54:35.450Z,9.63
2023-01-07T05:57:02.427Z,9.65
2023-01-07T05:59:29.309Z,9.66
2023-01-07T06:01:56.294Z,9.66
2023-01-07T06:04:23.288Z,9.68
2023-01-07T06:06:50.185Z,9.67
2023-01-07T06:09:17.864Z,9.62
2023-01-07T06:11:45.036Z,9.59
2023-01-07T06:14:11.964Z,9.55
2023-01-07T06:16:38.851Z,9.49
2023-01-07T06:19:05.698Z,9.49
2023-01-07T06:21:32.587Z,9.50
2023-01-07T06:23:59.500Z,9.46
2023-01-07T06:26:26.428Z,9.49
2023-01-07T06:28:53.309Z,9.47
2023-01-07T06:31:20.339Z,9.47
2023-01-07T06:33:47.487Z,9.45
2023-01-07T06:36:14.360Z,9.43
2023-01-07T06:38:41.849Z,9.40
2023-01-07T06:41:09.345Z,9.40
2023-01-07T06:43:36.192Z,9.40
2023-01-07T06:46:03.260Z,9.40
2023-01-07T06:48:30.216Z,9.38
2023-01-07T06:50:57.044Z,9.38
2023-01-07T06:53:24.037Z,9.40
2023-01-07T06:55:51.844Z,9.44
2023-01-07T06:58:19.040Z,9.41
2023-01-07T07:00:46.084Z,9.47
2023-01-07T07:03:12.986Z,9.49
2023-01-07T07:05:40.372Z,9.49
2023-01-07T07:08:07.453Z,9.45
2023-01-07T07:10:34.569Z,9.45
2023-01-07T07:13:01.926Z,9.46
2023-01-07T07:15:29.132Z,9.44
2023-01-07T07:17:56.093Z,9.46
2023-01-07T07:20:22.968Z,9.48
2023-01-07T07:22:50.008Z,9.49
2023-01-07T07:25:17.841Z,9.48
2023-01-07T07:27:46.402Z,9.44
2023-01-07T07:30:15.413Z,9.39
2023-01-07T07:32:43.388Z,9.41
2023-01-07T07:35:11.235Z,9.41
2023-01-07T07:37:38.464Z,9.43
2023-01-07T07:40:06.850Z,9.40
2023-01-07T07:43:09.563Z,9.39
2023-01-07T07:45:20.926Z,9.32
2023-01-07T07:47:47.876Z,9.29
2023-01-07T07:50:14.824Z,9.31
2023-01-07T07:52:41.912Z,9.29
2023-01-07T07:55:20.723Z,9.32
2023-01-07T07:57:55.068Z,9.34
2023-01-07T08:00:22.412Z,9.37
2023-01-07T08:02:49.375Z,9.37
2023-01-07T08:05:17.513Z,9.41
2023-01-07T08:07:44.447Z,9.46
2023-01-07T08:10:11.394Z,9.49
2023-01-07T08:12:39.573Z,9.52
2023-01-07T08:15:08.168Z,9.54
2023-01-07T08:17:36.585Z,9.54
2023-01-07T08:20:05.122Z,9.55
2023-01-07T08:22:33.369Z,9.54
2023-01-07T08:25:00.798Z,9.49
2023-01-07T08:27:28.445Z,9.45
2023-01-07T08:29:56.247Z,9.39
2023-01-07T08:32:23.428Z,9.36
2023-01-07T08:34:50.671Z,9.33
2023-01-07T08:37:17.708Z,9.32
2023-01-07T08:39:44.587Z,9.31
2023-01-07T08:42:11.793Z,9.31
2023-01-07T08:44:38.779Z,9.32
2023-01-07T08:47:05.686Z,9.36
2023-01-07T08:49:32.772Z,9.37
2023-01-07T08:51:59.627Z,9.41
2023-01-07T08:54:27.413Z,9.45
2023-01-07T08:56:54.498Z,9.49
2023-01-07T08:59:21.436Z,9.49
2023-01-07T09:01:48.571Z,9.46
2023-01-07T09:04:18.449Z,9.45
2023-01-07T09:06:45.407Z,9.45
2023-01-07T09:09:15.116Z,9.41
2023-01-07T09:11:42.675Z,9.40
2023-01-07T09:14:09.506Z,9.39
2023-01-07T09:16:36.626Z,9.38
2023-01-07T09:19:03.868Z,9.39
2023-01-07T09:21:30.740Z,9.40
2023-01-07T09:23:57.591Z,9.38
2023-01-07T09:26:24.674Z,9.37
2023-01-07T09:28:51.469Z,9.38
2023-01-07T09:31:18.540Z,9.40
2023-01-07T09:33:46.259Z,9.44
2023-01-07T09:36:13.127Z,9.45
2023-01-07T09:38:40.608Z,9.46
2023-01-07T09:41:32.362Z,9.46
2023-01-07T09:44:14.775Z,9.46
2023-01-07T09:46:43.872Z,9.49
2023-01-07T09:49:19.524Z,9.51
2023-01-07T09:51:54.341Z,9.49
2023-01-07T09:54:32.527Z,9.49
2023-01-07T09:56:59.937Z,9.52
2023-01-07T09:59:27.192Z,9.53
2023-01-07T10:02:43.565Z,9.58
2023-01-07T10:05:10.758Z,9.60
2023-01-07T10:07:45.875Z,9.64
2023-01-07T10:10:26.284Z,9.69
2023-01-07T10:13:22.845Z,9.74
2023-01-07T10:16:13.935Z,9.80
2023-01-07T10:19:38.374Z,9.85
2023-01-07T10:22:18.485Z,9.89
2023-01-07T10:24:51.478Z,9.91
2023-01-07T10:27:29.010Z,9.86
2023-01-07T10:30:02.325Z,9.83
2023-01-07T10:32:36.552Z,9.79
2023-01-07T10:35:05.415Z,9.78
2023-01-07T10:37:35.238Z,9.81
2023-01-07T10:40:28.455Z,9.87
2023-01-07T10:43:17.241Z,9.97
2023-01-07T10:45:57.824Z,10.09
2023-01-07T10:48:40.022Z,10.18
2023-01-07T10:51:44.292Z,10.25
2023-01-07T10:54:34.252Z,10.32
2023-01-07T10:57:07.691Z,10.33
2023-01-07T10:59:35.893Z,10.31
2023-01-07T11:02:03.619Z,10.31
2023-01-07T11:04:30.721Z,10.28
2023-01-07T11:07:05.889Z,10.29
2023-01-07T11:09:38.592Z,10.35
2023-01-07T11:12:17.574Z,10.46
2023-01-07T11:14:47.506Z,10.55
2023-01-07T11:17:44.263Z,10.70
2023-01-07T11:20:12.564Z,10.85
2023-01-07T11:22:40.264Z,10.83
2023-01-07T11:25:29.554Z,10.87
2023-01-07T11:28:02.052Z,10.92
2023-01-07T11:30:32.953Z,10.89
2023-01-07T11:33:03.465Z,10.90
2023-01-07T11:35:30.832Z,10.94
2023-01-07T11:37:59.507Z,10.89
2023-01-07T11:40:30.270Z,10.86
2023-01-07T11:43:02.050Z,10.85
2023-01-07T11:45:36.540Z,10.85
2023-01-07T11:48:06.785Z,10.84
2023-01-07T11:50:35.366Z,10.88
2023-01-07T11:53:15.976Z,10.91
2023-01-07T11:55:56.193Z,10.89
2023-01-07T11:58:29.367Z,10.88
2023-01-07T12:01:10.135Z,10.88
2023-01-07T12:03:44.876Z,10.82
2023-01-07T12:06:23.734Z,10.78
2023-01-07T12:09:05.907Z,10.76
2023-01-07T12:11:39.707Z,10.73
2023-01-07T12:14:11.885Z,10.75
2023-01-07T12:16:38.899Z,10.75
2023-01-07T12:19:22.837Z,10.73
2023-01-07T12:22:26.719Z,10.69
2023-01-07T12:25:09.559Z,10.77
2023-01-07T12:27:48.190Z,10.82
2023-01-07T12:30:47.843Z,10.90
2023-01-07T12:33:42.734Z,11.00
2023-01-07T12:36:43.793Z,11.02
2023-01-07T12:39:35.512Z,11.08
2023-01-07T12:42:27.363Z,11.05
2023-01-07T12:45:04.083Z,11.00
2023-01-07T12:47:40.436Z,10.95
2023-01-07T12:50:38.761Z,10.90
2023-01-07T12:53:14.157Z,10.93
2023-01-07T12:55:49.924Z,10.94
2023-01-07T12:58:35.865Z,10.98
2023-01-07T13:01:28.229Z,11.05
2023-01-07T13:03:58.134Z,11.06
2023-01-07T13:06:44.976Z,11.07
2023-01-07T13:09:35.331Z,11.08
2023-01-07T13:12:43.186Z,11.05
2023-01-07T13:15:27.470Z,11.04
2023-01-07T13:17:57.804Z,11.04
2023-01-07T13:21:03.317Z,11.05
2023-01-07T13:23:50.403Z,11.06
2023-01-07T13:26:35.666Z,11.03
2023-01-07T13:29:20.954Z,11.00
2023-01-07T13:32:10.695Z,10.95
2023-01-07T13:34:55.906Z,10.90
2023-01-07T13:37:41.130Z,10.86
2023-01-07T13:40:32.796Z,10.81
2023-01-07T13:43:18.045Z,10.76
2023-01-07T13:45:56.961Z,10.69
2023-01-07T13:48:28.691Z,10.65
2023-01-07T13:51:08.573Z,10.65
2023-01-07T13:53:40.259Z,10.64
2023-01-07T13:56:18.976Z,10.57
2023-01-07T13:58:55.815Z,10.49
2023-01-07T14:01:27.690Z,10.41
2023-01-07T14:04:04.009Z,10.35
2023-01-07T14:06:39.097Z,10.32
2023-01-07T14:09:11.443Z,10.27
2023-01-07T14:12:09.669Z,10.21
2023-01-07T14:14:46.858Z,10.23
2023-01-07T14:17:37.005Z,10.21
2023-01-07T14:20:48.814Z,10.19
2023-01-07T14:23:24.707Z,10.16
2023-01-07T14:26:36.781Z,10.12
2023-01-07T14:29:06.259Z,10.11
2023-01-07T14:31:33.426Z,10.07
2023-01-07T14:34:07.508Z,10.03
2023-01-07T14:37:09.836Z,10.00
2023-01-07T14:39:47.754Z,9.95
2023-01-07T14:42:20.489Z,9.95
2023-01-07T14:44:49.719Z,9.92
2023-01-07T14:47:41.631Z,9.91
2023-01-07T14:50:33.096Z,9.91
2023-01-07T14:53:17.089Z,9.89
2023-01-07T14:56:28.253Z,9.87
2023-01-07T14:59:27.269Z,9.82
2023-01-07T15:02:32.746Z,9.78
2023-01-07T15:05:11.493Z,9.72
2023-01-07T15:07:41.110Z,9.71
2023-01-07T15:10:48.645Z,9.74
2023-01-07T15:13:39.592Z,9.71
2023-01-07T15:16:11.691Z,9.69
2023-01-07T15:18:51.160Z,9.69
2023-01-07T15:21:37.989Z,9.76
2023-01-07T15:24:53.057Z,9.78
2023-01-07T15:27:45.735Z,9.85
2023-01-07T15:30:49.903Z,9.87
2023-01-07T15:33:17.328Z,9.86
2023-01-07T15:35:45.014Z,9.85
2023-01-07T15:38:30.789Z,9.81
2023-01-07T15:40:59.439Z,9.83
2023-01-07T15:43:29.070Z,9.83
2023-01-07T15:46:05.465Z,9.85
2023-01-07T15:48:32.691Z,9.88
2023-01-07T15:51:03.173Z,9.90
2023-01-07T15:53:30.799Z,9.91
2023-01-07T15:55:59.803Z,9.94
2023-01-07T15:58:51.929Z,9.97
2023-01-07T16:01:21.033Z,9.97
2023-01-07T16:03:50.347Z,10.02
2023-01-07T16:06:39.623Z,10.03
2023-01-07T16:09:19.203Z,10.00
2023-01-07T16:11:46.784Z,9.98
2023-01-07T16:14:18.995Z,9.98
2023-01-07T16:16:46.038Z,10.01
2023-01-07T16:19:18.594Z,10.00
2023-01-07T16:21:55.055Z,10.01
2023-01-07T16:24:22.652Z,10.02
2023-01-07T16:26:55.332Z,10.05
2023-01-07T16:29:29.366Z,10.04
2023-01-07T16:31:57.189Z,10.05
2023-01-07T16:34:24.025Z,10.04
2023-01-07T16:36:55.172Z,10.01
2023-01-07T16:39:26.184Z,10.00
2023-01-07T16:42:17.209Z,10.02
2023-01-07T16:44:49.462Z,10.02
2023-01-07T16:47:34.303Z,10.03
2023-01-07T16:50:17.573Z,10.01
2023-01-07T16:52:55.734Z,10.01
2023-01-07T16:55:54.830Z,9.98
2023-01-07T16:58:30.384Z,9.95
2023-01-07T17:01:00.653Z,9.92
2023-01-07T17:03:28.550Z,9.87
2023-01-07T17:06:04.971Z,9.87
2023-01-07T17:08:33.214Z,9.86
2023-01-07T17:11:08.508Z,9.84
2023-01-07T17:13:39.607Z,9.82
2023-01-07T17:16:21.351Z,9.81
2023-01-07T17:18:48.404Z,9.82
2023-01-07T17:21:39.619Z,9.83
2023-01-07T17:24:22.171Z,9.84
2023-01-07T17:26:49.645Z,9.86
2023-01-07T17:29:19.076Z,9.85
2023-01-07T17:31:47.926Z,9.87
2023-01-07T17:34:16.157Z,9.86
2023-01-07T17:36:43.128Z,9.85
2023-01-07T17:39:10.103Z,9.86
2023-01-07T17:41:56.857Z,9.88
2023-01-07T17:44:24.294Z,9.87
2023-01-07T17:46:51.547Z,9.89
2023-01-07T17:49:20.346Z,9.89
2023-01-07T17:51:53.207Z,9.89
2023-01-07T17:54:24.777Z,9.89
2023-01-07T17:56:52.592Z,9.85
2023-01-07T17:59:23.507Z,9.76
2023-01-07T18:01:55.479Z,9.76
2023-01-07T18:04:23.333Z,9.74
2023-01-07T18:06:50.376Z,9.74
2023-01-07T18:09:17.657Z,9.66
2023-01-07T18:12:04.724Z,9.60
2023-01-07T18:14:33.068Z,9.52
2023-01-07T18:17:00.060Z,9.49
2023-01-07T18:19:27.064Z,9.47
2023-01-07T18:21:54.155Z,9.46
2023-01-07T18:24:22.115Z,9.47
2023-01-07T18:26:49.637Z,9.48
2023-01-07T18:29:17.457Z,9.47
2023-01-07T18:31:45.324Z,9.44
2023-01-07T18:34:15.723Z,9.47
2023-01-07T18:36:43.776Z,9.48
2023-01-07T18:39:19.021Z,9.46
2023-01-07T18:41:50.458Z,9.46
2023-01-07T18:44:21.957Z,9.46
2023-01-07T18:46:48.898Z,9.44
2023-01-07T18:49:16.964Z,9.41
2023-01-07T18:51:46.987Z,9.46
2023-01-07T18:54:14.330Z,9.51
2023-01-07T18:56:41.352Z,9.52
2023-01-07T18:59:08.215Z,9.53
2023-01-07T19:01:35.201Z,9.56
2023-01-07T19:04:02.982Z,9.59
2023-01-07T19:06:30.071Z,9.61
2023-01-07T19:08:57.014Z,9.61
2023-01-07T19:11:23.962Z,9.61
2023-01-07T19:13:50.929Z,9.62
2023-01-07T19:16:17.978Z,9.64
2023-01-07T19:18:45.137Z,9.64
2023-01-07T19:21:13.296Z,9.65
2023-01-07T19:23:40.568Z,9.64
2023-01-07T19:26:11.285Z,9.62
2023-01-07T19:28:38.278Z,9.61
2023-01-07T19:31:09.179Z,9.61
2023-01-07T19:33:36.937Z,9.60
2023-01-07T19:36:12.251Z,9.58
2023-01-07T19:38:48.485Z,9.53
2023-01-07T19:41:18.489Z,9.45
2023-01-07T19:43:46.964Z,9.25
2023-01-07T19:46:16.113Z,9.05
2023-01-07T19:48:43.732Z,8.96
2023-01-07T19:51:11.126Z,8.96
2023-01-07T19:53:38.995Z,8.95
2023-01-07T19:56:08.727Z,9.03
2023-01-07T19:58:36.568Z,9.08
2023-01-07T20:01:09.468Z,9.13
2023-01-07T20:03:37.531Z,9.18
2023-01-07T20:06:12.957Z,9.22
2023-01-07T20:08:40.704Z,9.26
2023-01-07T20:11:07.784Z,9.26
2023-01-07T20:13:37.968Z,9.26
2023-01-07T20:16:07.271Z,9.27
2023-01-07T20:18:39.163Z,9.27
2023-01-07T20:21:06.552Z,9.27
2023-01-07T20:23:41.744Z,9.30
2023-01-07T20:26:18.735Z,9.32
2023-01-07T20:28:46.370Z,9.33
2023-01-07T20:31:16.324Z,9.34
2023-01-07T20:33:43.900Z,9.34
2023-01-07T20:36:17.888Z,9.35
2023-01-07T20:38:49.746Z,9.35
2023-01-07T20:41:28.096Z,9.36
2023-01-07T20:43:59.319Z,9.37
2023-01-07T20:46:28.298Z,9.38
2023-01-07T20:48:56.162Z,9.38
2023-01-07T20:51:23.517Z,9.40
2023-01-07T20:53:50.769Z,9.40
2023-01-07T20:56:20.608Z,9.41
2023-01-07T20:58:48.588Z,9.42
2023-01-07T21:01:19.472Z,9.43
2023-01-07T21:03:47.630Z,9.46
2023-01-07T21:06:20.042Z,9.45
2023-01-07T21:08:48.095Z,9.46
2023-01-07T21:11:21.428Z,9.48
2023-01-07T21:13:49.700Z,9.50
2023-01-07T21:16:17.704Z,9.53
2023-01-07T21:18:44.930Z,9.53
2023-01-07T21:21:16.036Z,9.55
2023-01-07T21:23:43.429Z,9.57
2023-01-07T21:26:13.134Z,9.59
2023-01-07T21:28:40.473Z,9.59
2023-01-07T21:31:11.368Z,9.61
2023-01-07T21:33:40.295Z,9.62
2023-01-07T21:36:09.933Z,9.61
2023-01-07T21:38:37.678Z,9.62
2023-01-07T21:41:11.043Z,9.64
2023-01-07T21:43:38.059Z,9.64
2023-01-07T21:46:06.256Z,9.62
2023-01-07T21:48:34.981Z,9.60
2023-01-07T21:51:04.124Z,9.60
2023-01-07T21:53:32.331Z,9.60
2023-01-07T21:56:15.837Z,9.58
2023-01-07T21:58:43.994Z,9.56
2023-01-07T22:01:11.785Z,9.56
2023-01-07T22:03:39.769Z,9.57
2023-01-07T22:06:15.904Z,9.60
2023-01-07T22:08:43.035Z,9.55
2023-01-07T22:11:18.082Z,9.50
2023-01-07T22:13:49.649Z,9.53
2023-01-07T22:16:18.001Z,9.55
2023-01-07T22:18:44.946Z,9.55
2023-01-07T22:21:13.476Z,9.56
2023-01-07T22:23:45.957Z,9.56
2023-01-07T22:26:14.712Z,9.56
2023-01-07T22:28:42.107Z,9.51
2023-01-07T22:31:15.917Z,9.53
2023-01-07T22:33:42.961Z,9.55
2023-01-07T22:36:12.288Z,9.58
2023-01-07T22:38:39.728Z,9.60
2023-01-07T22:41:07.725Z,9.59
2023-01-07T22:43:35.600Z,9.56
2023-01-07T22:46:18.857Z,9.46
2023-01-07T22:48:46.059Z,9.43
2023-01-07T22:51:28.533Z,9.42
2023-01-07T22:53:57.851Z,9.43
2023-01-07T22:56:25.351Z,9.39
2023-01-07T22:58:52.692Z,9.39
2023-01-07T23:01:19.958Z,9.44
2023-01-07T23:03:47.545Z,9.51
2023-01-07T23:06:15.974Z,9.56
2023-01-07T23:08:43.548Z,9.60
2023-01-07T23:11:11.403Z,9.59
2023-01-07T23:13:38.402Z,9.64
2023-01-07T23:16:07.681Z,9.64
2023-01-07T23:18:35.154Z,9.65
2023-01-07T23:21:04.860Z,9.69
2023-01-07T23:23:31.793Z,9.69
2023-01-07T23:25:58.791Z,9.68
2023-01-07T23:28:25.693Z,9.66
2023-01-07T23:30:52.551Z,9.64
2023-01-07T23:33:19.576Z,9.63
2023-01-07T23:35:47.153Z,9.66
2023-01-07T23:38:14.083Z,9.68
2023-01-07T23:40:41.180Z,9.68
2023-01-07T23:43:08.313Z,9.69
2023-01-07T23:45:35.346Z,9.69
2023-01-07T23:48:02.398Z,9.71
2023-01-07T23:50:29.276Z,9.73
2023-01-07T23:52:56.122Z,9.74
2023-01-07T23:55:23.165Z,9.71
2023-01-07T23:57:50.154Z,9.69
